Time;durP1;ratioP1;P1;durP2;ratioP2;P2;SDS_P1;SDS_P2;PMS_P1;PMS_P2;Temp;Humidity;BMP_temperature;BMP_pressure;BME280_temperature;BME280_humidity;BME280_pressure;Samples;Min_cycle;Max_cycle;Signal;HPM_P1;HPM_P2
2021/05/07 00:01:00;;;;;;;10.48;7.15;;;;;;;-0.12;61.09;94325.00;4984934;28;20105;-64
2021/05/07 00:03:25;;;;;;;17.98;10.20;;;;;;;0.45;59.84;94329.50;4985623;28;20479;-64
2021/05/07 00:05:55;;;;;;;16.23;11.68;;;;;;;0.13;60.36;94337.66;4985300;28;20093;-63
2021/05/07 00:08:28;;;;;;;14.23;9.80;;;;;;;0.58;59.38;94324.78;4987963;28;20082;-63
2021/05/07 00:10:57;;;;;;;13.50;8.93;;;;;;;0.73;58.62;94331.09;4989656;28;20110;-63
2021/05/07 00:13:23;;;;;;;16.15;12.82;;;;;;;0.03;60.95;94329.47;4984179;28;20075;-63
2021/05/07 00:15:48;;;;;;;11.18;8.27;;;;;;;0.23;60.82;94335.56;4983079;28;20901;-64
2021/05/07 00:18:14;;;;;;;15.40;10.85;;;;;;;0.06;61.29;94342.09;4985131;28;20555;-64
2021/05/07 00:20:39;;;;;;;13.05;10.10;;;;;;;0.02;61.37;94339.34;4984517;28;20079;-64
2021/05/07 00:23:05;;;;;;;20.23;11.50;;;;;;;-0.51;62.91;94355.00;4984233;28;20559;-63
2021/05/07 00:25:30;;;;;;;18.10;12.98;;;;;;;-1.20;65.77;94369.03;4987686;28;20567;-63
2021/05/07 00:27:59;;;;;;;9.95;7.05;;;;;;;-1.64;66.73;94361.88;4986151;28;20515;-63
2021/05/07 00:30:24;;;;;;;7.33;6.30;;;;;;;-2.21;67.00;94378.91;4981569;28;20806;-63
2021/05/07 00:32:50;;;;;;;11.13;8.50;;;;;;;-2.94;68.36;94378.28;4977147;28;20361;-63
2021/05/07 00:35:15;;;;;;;5.90;4.93;;;;;;;-2.79;68.80;94375.72;4982780;28;20103;-64
2021/05/07 00:37:40;;;;;;;9.50;7.60;;;;;;;-3.20;68.94;94389.19;4984085;28;20083;-63
2021/05/07 00:40:07;;;;;;;8.05;6.38;;;;;;;-3.32;69.49;94376.72;4985770;28;20094;-64
2021/05/07 00:42:32;;;;;;;7.45;5.28;;;;;;;-3.40;69.83;94383.66;4984628;28;20193;-64
2021/05/07 00:44:58;;;;;;;8.25;5.95;;;;;;;-3.14;69.07;94382.56;4984665;28;20447;-64
2021/05/07 00:47:24;;;;;;;4.28;3.67;;;;;;;-2.89;67.84;94385.97;4978561;28;20099;-63
2021/05/07 00:49:50;;;;;;;6.28;4.20;;;;;;;-3.01;68.74;94389.41;4982334;28;20457;-63
2021/05/07 00:52:16;;;;;;;8.57;6.75;;;;;;;-2.71;67.01;94393.38;4983096;28;20122;-63
2021/05/07 00:54:41;;;;;;;9.05;6.32;;;;;;;-3.07;68.30;94394.16;4982863;28;20910;-64
2021/05/07 00:57:06;;;;;;;7.97;6.00;;;;;;;-3.26;69.73;94392.06;4984869;28;20107;-64
2021/05/07 00:59:32;;;;;;;6.55;4.63;;;;;;;-2.86;68.37;94407.28;4983152;28;20165;-63
2021/05/07 01:01:57;;;;;;;9.05;6.75;;;;;;;-3.17;69.13;94397.25;4982424;28;20066;-64
2021/05/07 01:04:23;;;;;;;8.43;6.93;;;;;;;-3.15;69.26;94396.91;4984461;28;20162;-63
2021/05/07 01:06:48;;;;;;;6.30;5.00;;;;;;;-2.89;68.85;94400.00;4983893;28;20133;-63
2021/05/07 01:09:14;;;;;;;7.57;5.00;;;;;;;-2.78;68.55;94405.63;4984121;28;20079;-64
2021/05/07 01:11:39;;;;;;;8.93;7.10;;;;;;;-3.08;68.59;94400.56;4983701;28;20099;-64
2021/05/07 01:14:05;;;;;;;4.32;3.67;;;;;;;-2.98;68.30;94404.63;4983354;28;20115;-64
2021/05/07 01:16:32;;;;;;;5.35;3.47;;;;;;;-2.90;67.61;94413.56;4984068;28;20112;-63
2021/05/07 01:18:59;;;;;;;6.95;4.88;;;;;;;-2.54;66.88;94400.31;4983106;28;20145;-63
2021/05/07 01:21:25;;;;;;;3.55;2.72;;;;;;;-2.49;66.26;94408.00;4986973;28;20071;-64
2021/05/07 01:23:50;;;;;;;5.68;4.30;;;;;;;-2.08;65.19;94408.03;4986400;28;20194;-64
2021/05/07 01:26:15;;;;;;;4.47;3.88;;;;;;;-2.51;65.73;94423.47;4987202;28;20118;-64
2021/05/07 01:28:41;;;;;;;4.45;3.67;;;;;;;-2.24;65.09;94413.25;4987574;28;20133;-64
2021/05/07 01:31:06;;;;;;;5.13;3.80;;;;;;;-1.99;63.87;94414.78;4987019;28;20674;-64
2021/05/07 01:33:32;;;;;;;8.40;5.18;;;;;;;-1.98;64.23;94415.53;4988052;28;20192;-64
2021/05/07 01:35:57;;;;;;;7.07;4.75;;;;;;;-2.14;64.47;94426.06;4983529;28;20114;-64
2021/05/07 01:38:22;;;;;;;4.80;3.70;;;;;;;-2.56;65.35;94434.28;4981372;28;20475;-63
2021/05/07 01:40:49;;;;;;;3.53;2.92;;;;;;;-2.35;64.98;94430.75;4983161;28;20157;-63
2021/05/07 01:43:15;;;;;;;5.07;4.05;;;;;;;-2.44;65.17;94433.50;4982999;28;20496;-63
2021/05/07 01:45:42;;;;;;;6.05;4.20;;;;;;;-2.42;65.60;94433.94;4988430;28;20148;-63
2021/05/07 01:48:08;;;;;;;5.70;3.78;;;;;;;-2.05;63.77;94431.25;4979464;28;20210;-63
2021/05/07 01:50:37;;;;;;;6.60;4.65;;;;;;;-1.83;63.45;94432.63;4967142;28;20556;-63
2021/05/07 01:53:03;;;;;;;7.30;4.70;;;;;;;-1.95;63.00;94430.78;4985064;28;20087;-63
2021/05/07 01:55:30;;;;;;;4.72;3.60;;;;;;;-1.77;62.97;94437.31;4985327;28;20388;-63
2021/05/07 01:57:56;;;;;;;4.63;3.42;;;;;;;-1.91;62.82;94443.03;4988433;28;20478;-63
2021/05/07 02:00:23;;;;;;;6.10;4.18;;;;;;;-1.98;63.13;94436.75;4981991;28;20074;-63
2021/05/07 02:02:49;;;;;;;5.05;3.20;;;;;;;-2.00;63.17;94431.78;4982904;28;20103;-63
2021/05/07 02:05:15;;;;;;;4.30;3.78;;;;;;;-1.95;62.85;94441.38;4982793;28;20105;-63
2021/05/07 02:07:43;;;;;;;4.75;3.55;;;;;;;-1.99;63.35;94448.47;4983156;28;20094;-63
2021/05/07 02:10:10;;;;;;;6.72;5.10;;;;;;;-2.26;63.88;94453.34;4982797;28;20103;-63
2021/05/07 02:12:35;;;;;;;7.07;4.60;;;;;;;-2.52;65.10;94447.66;4981704;28;20519;-63
2021/05/07 02:15:01;;;;;;;6.68;4.38;;;;;;;-2.77;65.64;94455.63;4982094;28;20102;-63
2021/05/07 02:17:26;;;;;;;6.53;4.50;;;;;;;-2.69;64.88;94454.72;4985073;28;20125;-63
2021/05/07 02:19:51;;;;;;;7.25;4.28;;;;;;;-2.54;64.72;94458.59;4982336;28;20114;-63
2021/05/07 02:22:17;;;;;;;11.25;5.50;;;;;;;-2.34;64.54;94459.56;4977257;28;20110;-63
2021/05/07 02:24:42;;;;;;;5.60;4.25;;;;;;;-2.34;64.14;94450.84;4983157;28;20157;-63
2021/05/07 02:27:08;;;;;;;5.13;4.22;;;;;;;-2.06;63.45;94456.22;4982713;28;20246;-63
2021/05/07 02:29:33;;;;;;;7.57;5.43;;;;;;;-2.04;63.45;94460.09;4983471;28;20082;-63
2021/05/07 02:31:59;;;;;;;6.20;4.72;;;;;;;-1.82;62.71;94461.47;4980371;28;20111;-63
2021/05/07 02:34:24;;;;;;;10.20;8.25;;;;;;;-2.12;63.32;94464.38;4981619;28;20106;-63
2021/05/07 02:36:50;;;;;;;8.80;5.35;;;;;;;-2.24;63.90;94466.28;4982390;28;20090;-63
2021/05/07 02:39:16;;;;;;;11.45;8.20;;;;;;;-2.72;65.03;94467.84;4978296;28;20111;-64
2021/05/07 02:41:42;;;;;;;9.48;6.22;;;;;;;-2.60;65.51;94473.16;4984042;28;20094;-64
2021/05/07 02:44:07;;;;;;;10.10;7.18;;;;;;;-2.73;65.74;94472.38;4978139;28;20218;-63
2021/05/07 02:46:33;;;;;;;10.45;7.68;;;;;;;-2.32;64.64;94480.41;4976915;28;20099;-63
2021/05/07 02:49:00;;;;;;;10.45;7.25;;;;;;;-2.35;63.96;94481.09;4979575;28;20455;-63
2021/05/07 02:51:25;;;;;;;10.75;6.85;;;;;;;-2.41;63.57;94472.59;4977207;28;20115;-63
2021/05/07 02:53:51;;;;;;;10.77;7.68;;;;;;;-2.47;63.91;94473.91;4984604;28;20086;-63
2021/05/07 02:56:16;;;;;;;9.50;6.80;;;;;;;-2.40;63.40;94480.19;4983051;28;20097;-63
2021/05/07 02:58:41;;;;;;;10.77;7.88;;;;;;;-2.19;63.02;94477.44;4991148;28;20172;-63
2021/05/07 03:01:07;;;;;;;12.15;7.80;;;;;;;-1.95;62.84;94487.22;4985195;28;20083;-63
2021/05/07 03:03:32;;;;;;;9.45;6.78;;;;;;;-2.32;63.53;94481.19;4985769;28;20118;-63
2021/05/07 03:05:58;;;;;;;7.72;5.13;;;;;;;-2.29;63.69;94490.38;4990284;28;20075;-63
2021/05/07 03:08:23;;;;;;;9.38;6.35;;;;;;;-2.04;62.71;94485.81;4991240;28;20094;-63
2021/05/07 03:10:49;;;;;;;8.65;5.35;;;;;;;-2.22;62.93;94493.25;4988555;28;20125;-63
2021/05/07 03:13:15;;;;;;;11.40;8.30;;;;;;;-2.11;62.33;94491.66;4995313;28;20095;-64
2021/05/07 03:15:40;;;;;;;11.80;8.32;;;;;;;-2.21;62.76;94498.19;4987537;28;20460;-64
2021/05/07 03:18:06;;;;;;;14.32;9.18;;;;;;;-1.77;62.15;94498.34;4988910;28;20117;-63
2021/05/07 03:20:31;;;;;;;11.70;7.80;;;;;;;-1.99;62.41;94496.97;4995329;28;20089;-63
2021/05/07 03:22:56;;;;;;;16.20;9.77;;;;;;;-1.58;61.79;94493.22;4993804;28;20606;-63
2021/05/07 03:25:22;;;;;;;11.75;8.00;;;;;;;-1.65;61.59;94494.91;4991869;28;20550;-63
2021/05/07 03:27:47;;;;;;;11.70;8.38;;;;;;;-1.53;61.19;94499.38;4996422;28;20098;-63
2021/05/07 03:30:13;;;;;;;12.82;8.93;;;;;;;-1.13;60.33;94493.97;4990923;28;20102;-63
2021/05/07 03:32:39;;;;;;;16.40;10.18;;;;;;;-1.03;59.94;94499.59;4993000;28;20099;-63
2021/05/07 03:35:05;;;;;;;13.20;9.30;;;;;;;-1.37;60.30;94502.84;4992445;28;20114;-63
2021/05/07 03:37:30;;;;;;;13.35;8.20;;;;;;;-1.75;61.38;94508.66;4990287;28;20070;-63
2021/05/07 03:39:56;;;;;;;12.98;9.45;;;;;;;-1.41;60.80;94504.66;4991823;28;20107;-63
2021/05/07 03:42:21;;;;;;;14.15;9.02;;;;;;;-1.78;61.79;94510.06;4992064;28;20102;-63
2021/05/07 03:44:46;;;;;;;10.82;7.18;;;;;;;-1.82;62.33;94514.50;4992417;28;20086;-64
2021/05/07 03:47:12;;;;;;;16.83;12.43;;;;;;;-0.97;60.34;94509.94;4990377;28;20110;-63
2021/05/07 03:49:37;;;;;;;14.20;9.90;;;;;;;-1.14;60.31;94519.00;4989767;28;20843;-63
2021/05/07 03:52:03;;;;;;;16.58;11.75;;;;;;;-1.14;60.80;94526.97;4988183;28;20107;-64
2021/05/07 03:54:28;;;;;;;14.30;9.63;;;;;;;-1.13;60.42;94525.84;4990604;28;20115;-63
2021/05/07 03:56:54;;;;;;;14.88;9.55;;;;;;;-1.23;60.67;94534.31;4990246;28;20074;-63
2021/05/07 03:59:19;;;;;;;17.02;11.32;;;;;;;-1.11;60.69;94531.63;4989433;28;20111;-64
2021/05/07 04:01:45;;;;;;;19.23;12.95;;;;;;;-0.62;58.66;94523.34;4990776;28;20109;-64
2021/05/07 04:04:11;;;;;;;14.80;10.70;;;;;;;-1.03;60.06;94536.78;4989487;28;20414;-63
2021/05/07 04:06:37;;;;;;;17.45;11.05;;;;;;;-1.26;61.10;94535.78;4991462;28;20106;-63
2021/05/07 04:09:14;;;;;;;14.68;10.05;;;;;;;-1.17;61.06;94546.25;4989383;28;20435;-63
2021/05/07 04:14:14;;;;;;;13.05;9.18;;;;;;;-1.14;60.93;94546.31;4991032;28;20257;-63
2021/05/07 04:16:39;;;;;;;17.35;12.05;;;;;;;-0.75;60.23;94539.34;4990489;28;20126;-63
2021/05/07 04:19:05;;;;;;;15.63;10.30;;;;;;;-1.12;60.80;94551.31;4990220;28;20448;-63
2021/05/07 04:21:30;;;;;;;13.65;8.85;;;;;;;-1.01;60.34;94557.66;4971289;28;20149;-64
2021/05/07 04:23:56;;;;;;;13.75;9.43;;;;;;;-1.00;60.88;94557.31;4984818;28;20114;-63
2021/05/07 04:26:21;;;;;;;14.40;9.82;;;;;;;-0.69;59.86;94563.03;4985948;28;20098;-63
2021/05/07 04:28:47;;;;;;;15.63;9.93;;;;;;;-0.55;59.12;94566.06;4987383;28;20318;-64
2021/05/07 04:31:12;;;;;;;11.90;8.65;;;;;;;-1.16;61.27;94567.13;4988503;28;20201;-63
2021/05/07 04:33:38;;;;;;;18.17;12.75;;;;;;;-1.66;62.54;94571.06;4988396;28;20520;-63
2021/05/07 04:36:04;;;;;;;14.88;10.90;;;;;;;-1.62;62.22;94569.28;4987568;28;20420;-64
2021/05/07 04:38:29;;;;;;;15.88;12.23;;;;;;;-1.84;62.62;94577.72;4987626;28;20185;-63
2021/05/07 04:40:55;;;;;;;16.83;12.25;;;;;;;-1.86;63.14;94578.06;4991393;28;20419;-63
2021/05/07 04:43:20;;;;;;;15.20;10.70;;;;;;;-1.69;62.22;94579.69;4990447;28;20202;-63
2021/05/07 04:45:46;;;;;;;16.83;10.00;;;;;;;-1.26;61.25;94577.47;4988045;28;20452;-63
2021/05/07 04:48:15;;;;;;;12.07;8.93;;;;;;;-1.53;61.48;94586.94;4983246;28;22268;-63
2021/05/07 04:50:40;;;;;;;18.25;11.73;;;;;;;-1.51;61.77;94598.03;4990921;28;20102;-63
2021/05/07 04:53:06;;;;;;;17.83;12.18;;;;;;;-1.21;61.36;94591.28;4985192;28;20574;-64
2021/05/07 04:55:31;;;;;;;18.77;12.50;;;;;;;-1.48;61.11;94608.72;4989922;28;20119;-63
2021/05/07 04:57:57;;;;;;;18.38;12.60;;;;;;;-1.89;61.51;94601.84;4986911;28;20467;-63
2021/05/07 05:00:22;;;;;;;14.20;9.70;;;;;;;-2.05;62.30;94611.56;4987862;28;20866;-63
2021/05/07 05:02:48;;;;;;;16.27;10.77;;;;;;;-2.22;62.72;94609.88;4989665;28;20102;-63
2021/05/07 05:05:14;;;;;;;16.63;10.88;;;;;;;-2.05;62.40;94609.69;4985256;28;20098;-64
2021/05/07 05:07:53;;;;;;;15.77;11.45;;;;;;;-1.97;62.04;94616.75;4987548;28;20195;-64
2021/05/07 05:10:19;;;;;;;17.92;12.05;;;;;;;-1.32;61.38;94619.41;4987648;28;20134;-64
2021/05/07 05:12:45;;;;;;;17.27;12.07;;;;;;;-1.45;60.90;94613.34;4984884;28;20098;-63
2021/05/07 05:15:11;;;;;;;12.80;8.45;;;;;;;-1.34;61.16;94616.34;4984191;28;20107;-63
2021/05/07 05:17:36;;;;;;;12.85;9.38;;;;;;;-1.22;60.33;94616.28;4984949;28;20106;-63
2021/05/07 05:20:03;;;;;;;19.63;13.20;;;;;;;-0.85;59.87;94616.91;4989334;28;20492;-64
2021/05/07 05:22:28;;;;;;;14.75;10.38;;;;;;;-0.93;60.06;94617.84;4969830;28;20113;-63
2021/05/07 05:24:53;;;;;;;14.65;9.52;;;;;;;-1.47;61.01;94615.56;4987530;28;20079;-63
2021/05/07 05:27:19;;;;;;;14.13;10.45;;;;;;;-1.32;60.30;94624.72;4986399;28;20944;-63
2021/05/07 05:29:44;;;;;;;22.80;17.77;;;;;;;-1.39;60.05;94622.63;4985610;28;20106;-64
2021/05/07 05:32:11;;;;;;;18.45;12.70;;;;;;;-1.92;61.21;94627.16;4988963;28;20121;-64
2021/05/07 05:34:36;;;;;;;17.48;11.63;;;;;;;-2.07;62.27;94638.41;4984560;28;20514;-63
2021/05/07 05:37:02;;;;;;;18.45;11.45;;;;;;;-2.33;62.83;94643.97;4987517;28;20086;-63
2021/05/07 05:39:27;;;;;;;18.25;12.60;;;;;;;-2.69;64.27;94642.03;4988013;28;20198;-63
2021/05/07 05:41:53;;;;;;;17.55;11.57;;;;;;;-2.73;65.86;94641.91;4989170;28;20093;-63
2021/05/07 05:44:18;;;;;;;13.77;8.75;;;;;;;-1.96;63.01;94647.47;4987375;28;20079;-63
2021/05/07 05:46:44;;;;;;;12.00;7.75;;;;;;;-2.01;63.99;94653.00;4988180;28;20107;-63
2021/05/07 05:49:09;;;;;;;18.52;11.77;;;;;;;-1.57;61.43;94663.81;4981710;28;20126;-63
2021/05/07 05:51:35;;;;;;;21.63;16.50;;;;;;;-1.82;62.36;94652.44;4989418;28;20119;-63
2021/05/07 05:54:00;;;;;;;13.73;9.30;;;;;;;-1.04;60.08;94660.06;4984918;28;20153;-63
2021/05/07 05:56:26;;;;;;;18.50;12.18;;;;;;;-1.11;60.12;94662.50;4987105;28;20079;-63
2021/05/07 05:58:51;;;;;;;18.52;11.75;;;;;;;-1.20;59.86;94667.19;4986887;28;20102;-63
2021/05/07 06:01:17;;;;;;;14.45;9.10;;;;;;;-1.36;60.30;94666.34;4981673;28;20087;-63
2021/05/07 06:03:42;;;;;;;15.85;11.18;;;;;;;-1.29;59.46;94671.84;4984545;28;20492;-63
2021/05/07 06:06:08;;;;;;;15.10;9.82;;;;;;;-1.38;60.20;94671.97;4988946;28;20110;-63
2021/05/07 06:08:33;;;;;;;19.55;9.75;;;;;;;-1.05;59.33;94679.78;4985569;28;20071;-64
2021/05/07 06:10:58;;;;;;;17.63;12.68;;;;;;;-1.96;61.07;94692.56;4989408;28;20103;-63
2021/05/07 06:13:24;;;;;;;13.75;9.15;;;;;;;-1.73;61.66;94679.63;4983943;28;20102;-63
2021/05/07 06:15:49;;;;;;;15.02;9.35;;;;;;;-1.54;60.57;94679.06;4987787;28;20094;-64
2021/05/07 06:18:15;;;;;;;15.73;9.88;;;;;;;-1.96;62.31;94689.13;4984935;28;20111;-63
2021/05/07 06:20:40;;;;;;;12.85;8.90;;;;;;;-1.61;60.86;94681.50;4987165;28;20082;-63
2021/05/07 06:23:06;;;;;;;18.83;9.85;;;;;;;-1.25;59.49;94687.88;4983435;28;20387;-63
2021/05/07 06:25:31;;;;;;;11.13;6.60;;;;;;;-1.12;59.97;94686.75;4984887;28;20144;-63
2021/05/07 06:27:57;;;;;;;13.27;8.27;;;;;;;-1.20;59.38;94685.00;4987175;28;20580;-63
2021/05/07 06:30:22;;;;;;;13.07;9.25;;;;;;;-0.61;57.62;94685.13;4983755;28;20468;-63
2021/05/07 06:32:48;;;;;;;14.23;10.23;;;;;;;-0.36;56.85;94683.13;4989602;28;20174;-63
2021/05/07 06:35:13;;;;;;;14.63;9.98;;;;;;;-0.49;57.35;94677.13;4989053;28;20173;-63
2021/05/07 06:37:39;;;;;;;12.32;7.38;;;;;;;-0.01;56.15;94691.25;4988377;28;20137;-63
2021/05/07 06:40:06;;;;;;;17.08;10.88;;;;;;;0.23;55.53;94690.28;4984617;28;20103;-64
2021/05/07 06:42:35;;;;;;;14.48;10.52;;;;;;;-0.08;55.78;94703.59;4971129;28;20094;-63
2021/05/07 06:45:00;;;;;;;19.42;14.57;;;;;;;-1.11;58.16;94702.34;4986709;28;20105;-63
2021/05/07 06:47:26;;;;;;;17.55;12.35;;;;;;;-1.08;58.68;94701.66;4987609;28;20618;-63
2021/05/07 06:49:51;;;;;;;16.63;10.45;;;;;;;-0.18;57.98;94707.53;4984612;28;20134;-63
2021/05/07 06:52:16;;;;;;;15.60;11.13;;;;;;;-0.70;57.51;94705.78;4985702;28;20568;-63
2021/05/07 06:54:42;;;;;;;17.08;12.35;;;;;;;-0.54;57.28;94708.47;4987463;28;20094;-63
2021/05/07 06:57:07;;;;;;;14.18;7.93;;;;;;;-0.24;56.55;94712.31;4987965;28;20090;-63
2021/05/07 06:59:33;;;;;;;11.05;7.30;;;;;;;0.19;54.46;94712.59;4987971;28;20099;-63
2021/05/07 07:02:01;;;;;;;10.63;7.20;;;;;;;-0.54;55.84;94698.63;4989482;28;20075;-63
2021/05/07 07:04:27;;;;;;;9.13;5.88;;;;;;;-0.41;55.01;94706.53;4991381;28;20083;-63
2021/05/07 07:06:53;;;;;;;8.93;6.43;;;;;;;-0.08;57.85;94699.03;4984600;28;20109;-63
2021/05/07 07:09:19;;;;;;;9.13;5.93;;;;;;;-0.09;54.49;94700.16;4987340;28;20407;-64
2021/05/07 07:11:45;;;;;;;12.15;7.47;;;;;;;-0.30;54.53;94708.34;4990859;28;20122;-63
2021/05/07 07:14:10;;;;;;;11.10;7.78;;;;;;;-0.18;55.49;94724.25;4987873;28;20109;-64
2021/05/07 07:16:36;;;;;;;14.20;10.13;;;;;;;-0.28;56.26;94727.41;4993143;28;20095;-63
2021/05/07 07:19:01;;;;;;;12.85;9.02;;;;;;;-0.13;56.62;94725.88;4990012;28;20456;-63
2021/05/07 07:21:27;;;;;;;14.02;10.15;;;;;;;0.09;55.15;94735.19;4989248;28;20495;-63
2021/05/07 07:23:52;;;;;;;15.95;11.85;;;;;;;-0.50;55.19;94738.56;4987290;28;20542;-63
2021/05/07 07:26:17;;;;;;;13.88;9.20;;;;;;;-0.21;54.91;94745.44;4991757;28;20106;-64
2021/05/07 07:28:44;;;;;;;14.95;9.98;;;;;;;-0.68;56.78;94743.41;4986867;28;20130;-63
2021/05/07 07:31:10;;;;;;;10.43;6.88;;;;;;;0.76;53.06;94729.94;4989843;28;20225;-64
2021/05/07 07:33:35;;;;;;;15.25;10.60;;;;;;;0.23;54.17;94740.09;4990691;28;20090;-63
2021/05/07 07:36:01;;;;;;;12.98;8.55;;;;;;;0.50;53.61;94741.13;4987888;28;20099;-64
2021/05/07 07:38:26;;;;;;;15.32;8.52;;;;;;;0.03;52.44;94741.88;4986227;28;20099;-64
2021/05/07 07:40:52;;;;;;;10.00;6.93;;;;;;;0.53;52.98;94751.91;4990723;28;20115;-64
2021/05/07 07:43:18;;;;;;;10.90;7.03;;;;;;;0.91;52.25;94751.22;4989815;28;20106;-64
2021/05/07 07:45:44;;;;;;;12.10;8.85;;;;;;;0.72;52.56;94755.72;4989512;28;20086;-63
2021/05/07 07:48:10;;;;;;;12.65;9.13;;;;;;;1.52;52.56;94750.59;4983801;28;20110;-63
2021/05/07 07:50:35;;;;;;;12.32;7.80;;;;;;;2.04;51.16;94751.19;4988489;28;20173;-64
2021/05/07 07:53:00;;;;;;;15.90;9.38;;;;;;;1.74;49.50;94748.34;4990942;28;20205;-64
2021/05/07 07:55:26;;;;;;;9.02;6.88;;;;;;;1.96;49.29;94744.97;4989392;28;20111;-64
2021/05/07 07:57:51;;;;;;;12.68;7.43;;;;;;;1.56;49.24;94756.00;4984157;28;20083;-64
2021/05/07 08:00:17;;;;;;;11.98;8.93;;;;;;;0.88;49.36;94769.81;4986761;28;20572;-63
2021/05/07 08:02:44;;;;;;;13.75;9.57;;;;;;;0.28;50.25;94771.75;4988279;28;20791;-64
2021/05/07 08:05:10;;;;;;;11.27;8.07;;;;;;;-0.01;53.43;94762.31;4988164;28;20087;-63
2021/05/07 08:07:36;;;;;;;13.10;8.65;;;;;;;-0.28;55.30;94761.19;4986608;28;20142;-62
2021/05/07 08:10:02;;;;;;;9.65;5.13;;;;;;;-0.44;57.31;94769.13;4989963;28;20176;-62
2021/05/07 08:12:27;;;;;;;10.40;6.63;;;;;;;-0.22;56.56;94771.25;4987473;28;20231;-68
2021/05/07 08:14:53;;;;;;;14.25;10.27;;;;;;;-0.42;56.33;94772.22;4984025;28;20106;-63
2021/05/07 08:17:18;;;;;;;14.68;8.90;;;;;;;-0.27;55.80;94773.38;4987439;28;20095;-64
2021/05/07 08:19:44;;;;;;;13.35;6.55;;;;;;;-0.60;57.77;94778.94;4986259;28;20335;-64
2021/05/07 08:22:10;;;;;;;11.65;8.77;;;;;;;-0.89;57.92;94790.63;4986613;28;21029;-64
2021/05/07 08:24:35;;;;;;;17.52;9.88;;;;;;;-1.41;59.71;94797.41;4986889;28;20086;-63
2021/05/07 08:27:01;;;;;;;12.65;8.60;;;;;;;-1.78;61.08;94801.88;4987425;28;20150;-63
2021/05/07 08:29:26;;;;;;;15.57;10.82;;;;;;;-1.77;60.58;94798.13;4988363;28;20083;-63
2021/05/07 08:31:52;;;;;;;12.23;8.27;;;;;;;-1.20;60.17;94810.59;4987804;28;20492;-63
2021/05/07 08:34:20;;;;;;;12.38;7.72;;;;;;;-1.56;60.74;94819.28;4986136;28;20125;-63
2021/05/07 08:36:45;;;;;;;15.05;9.27;;;;;;;-1.59;60.01;94825.25;4987961;28;20109;-63
2021/05/07 08:39:11;;;;;;;14.27;9.18;;;;;;;-1.14;60.81;94821.75;4987698;28;20107;-64
2021/05/07 08:41:36;;;;;;;12.85;8.88;;;;;;;-1.24;60.62;94833.59;4988142;28;20079;-63
2021/05/07 08:44:02;;;;;;;14.18;9.70;;;;;;;-1.24;59.26;94848.75;4985270;28;20126;-63
2021/05/07 08:46:28;;;;;;;11.43;7.28;;;;;;;-1.19;60.27;94851.19;4983172;28;20122;-63
2021/05/07 08:48:53;;;;;;;12.70;9.15;;;;;;;-1.86;60.59;94856.59;4985156;28;20142;-63
2021/05/07 08:51:19;;;;;;;14.23;7.93;;;;;;;-2.46;62.41;94863.16;4983329;28;20109;-63
2021/05/07 08:53:44;;;;;;;11.07;7.78;;;;;;;-2.78;64.08;94858.53;4982858;28;20342;-63
2021/05/07 08:56:10;;;;;;;10.30;6.13;;;;;;;-2.63;64.34;94863.25;4983897;28;20107;-63
2021/05/07 08:58:35;;;;;;;10.93;7.80;;;;;;;-2.48;64.07;94873.28;4984610;28;20111;-64
2021/05/07 09:01:02;;;;;;;8.52;5.53;;;;;;;-1.95;63.21;94871.81;4985946;28;20082;-64
2021/05/07 09:03:40;;;;;;;9.35;6.35;;;;;;;-1.58;62.06;94879.88;4990627;28;20121;-63
2021/05/07 09:06:21;;;;;;;10.15;6.32;;;;;;;-1.23;61.80;94871.53;4986701;28;20121;-64
2021/05/07 09:08:48;;;;;;;11.18;7.45;;;;;;;-0.71;61.06;94869.00;4984890;28;20071;-64
2021/05/07 09:11:17;;;;;;;7.97;6.05;;;;;;;-0.09;59.86;94866.97;4986885;28;20117;-64
2021/05/07 09:13:43;;;;;;;7.13;4.88;;;;;;;-0.90;60.43;94877.50;4980601;28;20083;-63
2021/05/07 09:16:10;;;;;;;7.03;4.88;;;;;;;-0.46;59.86;94877.72;4986502;28;20083;-63
2021/05/07 09:18:51;;;;;;;5.90;4.40;;;;;;;0.03;60.09;94881.00;4985783;28;20658;-64
2021/05/07 09:21:17;;;;;;;7.45;5.00;;;;;;;-0.91;62.70;94883.16;4983007;28;20148;-63
2021/05/07 09:23:44;;;;;;;5.75;3.88;;;;;;;-0.39;59.09;94879.81;4983326;28;20111;-63
2021/05/07 09:26:10;;;;;;;7.65;5.55;;;;;;;-0.18;59.86;94883.09;4983089;28;20110;-63
2021/05/07 09:28:35;;;;;;;9.02;5.97;;;;;;;-0.49;58.01;94907.63;4979615;28;20074;-63
2021/05/07 09:31:17;;;;;;;9.50;6.72;;;;;;;-0.94;60.63;94907.75;4983146;28;20508;-63
2021/05/07 09:33:44;;;;;;;8.70;6.03;;;;;;;-1.52;62.93;94914.94;4982344;28;20075;-63
2021/05/07 09:36:09;;;;;;;6.63;5.45;;;;;;;-1.63;62.31;94909.28;4981480;28;20079;-63
2021/05/07 09:38:35;;;;;;;8.00;5.68;;;;;;;-1.44;63.04;94922.84;4979331;28;20194;-63
2021/05/07 09:41:00;;;;;;;8.40;5.78;;;;;;;-1.37;61.98;94898.38;4983113;28;20079;-63
2021/05/07 09:43:29;;;;;;;7.30;5.10;;;;;;;-1.33;62.75;94900.06;4983702;28;20117;-63
2021/05/07 09:45:54;;;;;;;8.47;6.03;;;;;;;-1.15;61.66;94915.81;4982231;28;20125;-63
2021/05/07 09:48:27;;;;;;;6.90;5.03;;;;;;;-1.24;61.15;94907.16;4983798;28;20271;-63
2021/05/07 09:51:02;;;;;;;8.20;5.35;;;;;;;-1.51;60.71;94911.22;4984008;28;20110;-63
2021/05/07 09:53:32;;;;;;;6.85;3.92;;;;;;;-1.06;61.30;94919.91;4976226;28;20133;-63
2021/05/07 09:56:03;;;;;;;6.65;5.00;;;;;;;-1.31;61.59;94920.97;4981594;28;20145;-63
2021/05/07 09:58:28;;;;;;;7.20;4.55;;;;;;;-1.42;63.46;94922.50;4987874;28;20099;-63
2021/05/07 10:00:56;;;;;;;7.10;5.10;;;;;;;-1.16;61.61;94927.53;4982669;28;20083;-63
2021/05/07 10:03:22;;;;;;;6.15;4.65;;;;;;;-0.92;61.71;94940.84;4979662;28;20126;-63
2021/05/07 10:05:48;;;;;;;7.72;4.22;;;;;;;-1.17;62.50;94936.59;4980971;28;20588;-63
2021/05/07 10:08:13;;;;;;;6.57;3.92;;;;;;;-1.39;63.34;94946.50;4980629;28;20098;-63
2021/05/07 10:10:41;;;;;;;9.82;6.75;;;;;;;-1.64;62.94;94956.28;4974492;28;20598;-63
2021/05/07 10:13:14;;;;;;;8.97;5.50;;;;;;;-2.07;62.89;94966.47;4983707;28;20086;-63
2021/05/07 10:15:40;;;;;;;3.60;3.05;;;;;;;-2.62;64.45;94973.47;4978505;28;20131;-63
2021/05/07 10:18:10;;;;;;;3.35;2.70;;;;;;;-2.83;64.98;94977.91;4964845;28;20118;-62
2021/05/07 10:20:37;;;;;;;4.53;3.50;;;;;;;-3.00;66.38;94979.53;4980279;28;20093;-62
2021/05/07 10:23:19;;;;;;;3.67;2.47;;;;;;;-2.32;64.93;94974.22;4980580;28;20117;-63
2021/05/07 10:26:04;;;;;;;3.10;2.80;;;;;;;-2.07;65.69;94969.88;4984141;28;20423;-63
2021/05/07 10:28:48;;;;;;;2.55;2.35;;;;;;;-1.65;64.79;94975.19;4984033;28;20079;-63
2021/05/07 10:31:15;;;;;;;2.50;2.30;;;;;;;-1.79;65.37;94972.00;4984198;28;20568;-63
2021/05/07 10:33:59;;;;;;;2.72;2.53;;;;;;;-1.03;61.70;95001.59;4982477;28;20113;-63
2021/05/07 10:36:47;;;;;;;5.10;3.75;;;;;;;-2.11;65.75;95011.38;4985479;28;20085;-63
2021/05/07 10:39:26;;;;;;;5.95;3.92;;;;;;;-2.45;66.42;94997.22;4985261;28;20428;-63
2021/05/07 10:41:52;;;;;;;3.65;2.90;;;;;;;-2.57;67.66;95009.59;4984371;28;20082;-63
2021/05/07 10:44:18;;;;;;;3.90;3.50;;;;;;;-2.20;66.74;95013.28;4986272;28;20602;-63
2021/05/07 10:46:43;;;;;;;4.93;3.83;;;;;;;-2.30;66.06;95026.94;4981215;28;20110;-63
2021/05/07 10:49:09;;;;;;;4.50;3.45;;;;;;;-2.27;66.78;95019.09;4987462;28;20157;-63
2021/05/07 10:51:35;;;;;;;2.40;2.20;;;;;;;-1.88;66.03;95019.84;4983510;28;20193;-63
2021/05/07 10:54:07;;;;;;;2.67;2.47;;;;;;;-1.77;66.34;95025.50;4981573;28;20074;-63
2021/05/07 10:56:37;;;;;;;5.57;2.88;;;;;;;-1.56;66.52;95039.56;4983938;28;20090;-63
2021/05/07 10:59:22;;;;;;;2.53;2.33;;;;;;;-1.71;66.89;95043.56;4983690;28;20456;-63
2021/05/07 11:01:57;;;;;;;4.00;3.40;;;;;;;-1.96;66.69;95050.63;4982376;28;20122;-63
2021/05/07 11:04:23;;;;;;;4.53;3.40;;;;;;;-1.92;66.08;95056.03;4985728;28;20186;-63
2021/05/07 11:06:58;;;;;;;5.50;3.35;;;;;;;-1.54;66.21;95050.63;4983780;28;20110;-63
2021/05/07 11:09:24;;;;;;;3.10;2.80;;;;;;;-1.42;65.62;95058.66;4985252;28;20082;-63
2021/05/07 11:11:54;;;;;;;4.15;3.50;;;;;;;-1.50;65.89;95072.78;4982431;28;20477;-63
2021/05/07 11:14:20;;;;;;;4.35;3.35;;;;;;;-1.36;64.68;95069.88;4981932;28;20161;-63
2021/05/07 11:16:46;;;;;;;3.03;2.70;;;;;;;-1.28;65.77;95080.44;4978884;28;20174;-63
2021/05/07 11:19:27;;;;;;;3.70;3.03;;;;;;;-1.29;62.78;95089.50;4986452;28;20113;-63
2021/05/07 11:21:55;;;;;;;6.13;3.95;;;;;;;-0.94;63.56;95089.19;4984228;28;20081;-63
2021/05/07 11:24:31;;;;;;;2.70;2.50;;;;;;;-0.93;61.94;95093.38;4982684;28;20121;-63
2021/05/07 11:26:57;;;;;;;1.80;1.70;;;;;;;-0.74;62.14;95106.94;4979292;28;20699;-63